sensor_id;sensor_type;location;lat;lon;timestamp;pressure;altitude;pressure_sealevel;temperature;humidity
2673;BME280;1346;51.558;6.996;2022-07-29T00:00:38;101086.16;;;19.50;76.98
2673;BME280;1346;51.558;6.996;2022-07-29T00:03:05;101089.06;;;19.48;76.54
2673;BME280;1346;51.558;6.996;2022-07-29T00:05:33;101087.38;;;19.47;76.62
2673;BME280;1346;51.558;6.996;2022-07-29T00:08:00;101086.75;;;19.45;76.54
2673;BME280;1346;51.558;6.996;2022-07-29T00:10:27;101086.94;;;19.44;76.76
2673;BME280;1346;51.558;6.996;2022-07-29T00:12:54;101083.78;;;19.40;77.10
2673;BME280;1346;51.558;6.996;2022-07-29T00:15:21;101079.41;;;19.39;77.84
2673;BME280;1346;51.558;6.996;2022-07-29T00:17:48;101083.16;;;19.38;77.18
2673;BME280;1346;51.558;6.996;2022-07-29T00:20:15;101084.19;;;19.37;77.49
2673;BME280;1346;51.558;6.996;2022-07-29T00:22:43;101084.00;;;19.39;78.05
2673;BME280;1346;51.558;6.996;2022-07-29T00:25:11;101084.19;;;19.37;78.23
2673;BME280;1346;51.558;6.996;2022-07-29T00:27:38;101089.63;;;19.37;78.67
2673;BME280;1346;51.558;6.996;2022-07-29T00:30:07;101085.25;;;19.36;78.56
2673;BME280;1346;51.558;6.996;2022-07-29T00:32:34;101073.75;;;19.34;77.67
2673;BME280;1346;51.558;6.996;2022-07-29T00:35:01;101061.19;;;19.33;78.56
2673;BME280;1346;51.558;6.996;2022-07-29T00:37:47;101062.22;;;19.32;79.62
2673;BME280;1346;51.558;6.996;2022-07-29T00:40:13;101058.03;;;19.30;79.75
2673;BME280;1346;51.558;6.996;2022-07-29T00:42:44;101056.53;;;19.27;79.61
2673;BME280;1346;51.558;6.996;2022-07-29T00:45:12;101055.03;;;19.24;79.52
2673;BME280;1346;51.558;6.996;2022-07-29T00:47:40;101043.72;;;19.21;80.27
2673;BME280;1346;51.558;6.996;2022-07-29T00:50:09;101043.13;;;19.19;80.27
2673;BME280;1346;51.558;6.996;2022-07-29T00:52:39;101037.25;;;19.15;81.39
2673;BME280;1346;51.558;6.996;2022-07-29T00:55:11;101035.13;;;19.11;81.20
2673;BME280;1346;51.558;6.996;2022-07-29T00:57:39;101034.69;;;19.07;81.13
2673;BME280;1346;51.558;6.996;2022-07-29T01:00:10;101023.38;;;19.04;81.78
2673;BME280;1346;51.558;6.996;2022-07-29T01:02:37;101030.91;;;19.02;82.11
2673;BME280;1346;51.558;6.996;2022-07-29T01:05:06;101023.13;;;18.99;82.76
2673;BME280;1346;51.558;6.996;2022-07-29T01:07:35;101022.69;;;18.95;82.47
2673;BME280;1346;51.558;6.996;2022-07-29T01:10:03;101013.50;;;18.90;82.95
2673;BME280;1346;51.558;6.996;2022-07-29T01:12:33;101019.31;;;18.87;83.88
2673;BME280;1346;51.558;6.996;2022-07-29T01:15:03;101015.31;;;18.83;83.96
2673;BME280;1346;51.558;6.996;2022-07-29T01:17:36;101013.81;;;18.80;84.50
2673;BME280;1346;51.558;6.996;2022-07-29T01:20:10;101012.16;;;18.79;85.01
2673;BME280;1346;51.558;6.996;2022-07-29T01:23:07;101003.56;;;18.76;85.44
2673;BME280;1346;51.558;6.996;2022-07-29T01:26:04;101002.28;;;18.72;86.24
2673;BME280;1346;51.558;6.996;2022-07-29T01:28:56;100988.09;;;18.70;86.18
2673;BME280;1346;51.558;6.996;2022-07-29T01:31:31;100992.03;;;18.67;86.21
2673;BME280;1346;51.558;6.996;2022-07-29T01:34:03;100991.38;;;18.65;85.92
2673;BME280;1346;51.558;6.996;2022-07-29T01:36:37;100996.38;;;18.62;86.46
2673;BME280;1346;51.558;6.996;2022-07-29T01:39:10;100987.59;;;18.60;87.37
2673;BME280;1346;51.558;6.996;2022-07-29T01:41:45;100998.84;;;18.57;87.79
2673;BME280;1346;51.558;6.996;2022-07-29T01:44:22;100994.66;;;18.54;88.19
2673;BME280;1346;51.558;6.996;2022-07-29T01:46:57;100995.88;;;18.52;87.82
2673;BME280;1346;51.558;6.996;2022-07-29T01:49:29;100994.22;;;18.51;88.17
2673;BME280;1346;51.558;6.996;2022-07-29T01:52:01;100995.88;;;18.52;88.72
2673;BME280;1346;51.558;6.996;2022-07-29T01:54:35;100989.00;;;18.49;88.87
2673;BME280;1346;51.558;6.996;2022-07-29T01:57:05;100984.78;;;18.47;89.66
2673;BME280;1346;51.558;6.996;2022-07-29T01:59:35;100986.66;;;18.46;90.31
2673;BME280;1346;51.558;6.996;2022-07-29T02:02:05;100986.22;;;18.43;90.64
2673;BME280;1346;51.558;6.996;2022-07-29T02:04:36;100982.19;;;18.39;91.00
2673;BME280;1346;51.558;6.996;2022-07-29T02:07:06;100979.47;;;18.39;91.32
2673;BME280;1346;51.558;6.996;2022-07-29T02:09:35;100986.97;;;18.37;92.17
2673;BME280;1346;51.558;6.996;2022-07-29T02:12:04;100980.91;;;18.35;92.59
2673;BME280;1346;51.558;6.996;2022-07-29T02:14:39;100973.16;;;18.32;92.50
2673;BME280;1346;51.558;6.996;2022-07-29T02:17:07;100967.09;;;18.30;91.88
2673;BME280;1346;51.558;6.996;2022-07-29T02:19:36;100984.41;;;18.29;91.21
2673;BME280;1346;51.558;6.996;2022-07-29T02:22:05;100978.97;;;18.29;91.37
2673;BME280;1346;51.558;6.996;2022-07-29T02:24:34;100984.41;;;18.29;91.12
2673;BME280;1346;51.558;6.996;2022-07-29T02:27:03;100983.34;;;18.30;92.05
2673;BME280;1346;51.558;6.996;2022-07-29T02:29:31;100980.84;;;18.28;92.19
2673;BME280;1346;51.558;6.996;2022-07-29T02:32:00;100973.75;;;18.27;92.41
2673;BME280;1346;51.558;6.996;2022-07-29T02:34:30;100973.97;;;18.26;92.68
2673;BME280;1346;51.558;6.996;2022-07-29T02:36:57;100970.59;;;18.24;92.12
2673;BME280;1346;51.558;6.996;2022-07-29T02:39:27;100974.72;;;18.20;92.45
2673;BME280;1346;51.558;6.996;2022-07-29T02:41:59;100976.16;;;18.16;93.23
2673;BME280;1346;51.558;6.996;2022-07-29T02:44:28;100967.75;;;18.10;93.53
2673;BME280;1346;51.558;6.996;2022-07-29T02:50:31;100968.34;;;18.06;91.36
2673;BME280;1346;51.558;6.996;2022-07-29T02:53:04;100969.38;;;18.05;91.59
2673;BME280;1346;51.558;6.996;2022-07-29T02:55:36;100972.31;;;18.03;90.64
2673;BME280;1346;51.558;6.996;2022-07-29T02:58:10;100972.31;;;18.03;90.62
2673;BME280;1346;51.558;6.996;2022-07-29T03:00:41;100976.03;;;18.02;91.07
2673;BME280;1346;51.558;6.996;2022-07-29T03:03:13;100977.91;;;18.02;91.54
2673;BME280;1346;51.558;6.996;2022-07-29T03:05:42;100983.16;;;18.03;91.56
2673;BME280;1346;51.558;6.996;2022-07-29T03:08:11;100993.41;;;18.08;90.72
2673;BME280;1346;51.558;6.996;2022-07-29T03:10:42;101003.84;;;18.11;91.74
2673;BME280;1346;51.558;6.996;2022-07-29T03:13:10;101014.50;;;18.13;93.32
2673;BME280;1346;51.558;6.996;2022-07-29T03:15:38;101024.31;;;18.14;91.34
2673;BME280;1346;51.558;6.996;2022-07-29T03:18:06;101021.81;;;18.12;91.67
2673;BME280;1346;51.558;6.996;2022-07-29T03:20:33;101024.69;;;18.10;92.24
2673;BME280;1346;51.558;6.996;2022-07-29T03:23:02;101022.38;;;18.07;92.22
2673;BME280;1346;51.558;6.996;2022-07-29T03:25:30;101026.53;;;18.03;92.38
2673;BME280;1346;51.558;6.996;2022-07-29T03:27:57;101040.44;;;18.00;92.83
2673;BME280;1346;51.558;6.996;2022-07-29T03:30:24;101041.88;;;17.96;93.25
2673;BME280;1346;51.558;6.996;2022-07-29T03:32:51;101021.41;;;17.94;93.78
2673;BME280;1346;51.558;6.996;2022-07-29T03:35:20;101007.84;;;17.94;93.40
2673;BME280;1346;51.558;6.996;2022-07-29T03:37:48;101015.34;;;17.92;93.64
2673;BME280;1346;51.558;6.996;2022-07-29T03:40:22;101031.78;;;17.90;93.45
2673;BME280;1346;51.558;6.996;2022-07-29T03:42:53;101027.81;;;17.86;93.92
2673;BME280;1346;51.558;6.996;2022-07-29T03:45:23;101020.69;;;17.85;94.24
2673;BME280;1346;51.558;6.996;2022-07-29T03:47:57;101003.78;;;17.83;94.42
2673;BME280;1346;51.558;6.996;2022-07-29T03:50:25;101003.16;;;17.81;94.45
2673;BME280;1346;51.558;6.996;2022-07-29T03:52:52;101010.81;;;17.78;94.38
2673;BME280;1346;51.558;6.996;2022-07-29T03:55:21;101019.78;;;17.78;94.35
2673;BME280;1346;51.558;6.996;2022-07-29T03:57:50;101019.41;;;17.81;94.31
2673;BME280;1346;51.558;6.996;2022-07-29T04:00:17;101014.81;;;17.82;93.98
2673;BME280;1346;51.558;6.996;2022-07-29T04:02:45;101018.75;;;17.79;93.89
2673;BME280;1346;51.558;6.996;2022-07-29T04:05:14;101026.88;;;17.79;94.06
2673;BME280;1346;51.558;6.996;2022-07-29T04:07:44;101032.50;;;17.78;94.34
2673;BME280;1346;51.558;6.996;2022-07-29T04:10:11;101023.53;;;17.77;94.28
2673;BME280;1346;51.558;6.996;2022-07-29T04:12:39;101041.84;;;17.75;94.87
2673;BME280;1346;51.558;6.996;2022-07-29T04:15:07;101059.34;;;17.73;95.04
2673;BME280;1346;51.558;6.996;2022-07-29T04:17:34;101060.16;;;17.73;95.26
2673;BME280;1346;51.558;6.996;2022-07-29T04:20:02;101074.94;;;17.71;95.44
2673;BME280;1346;51.558;6.996;2022-07-29T04:22:29;101085.31;;;17.67;95.75
2673;BME280;1346;51.558;6.996;2022-07-29T04:24:56;101103.63;;;17.65;96.28
2673;BME280;1346;51.558;6.996;2022-07-29T04:27:22;101096.91;;;17.61;96.88
2673;BME280;1346;51.558;6.996;2022-07-29T04:29:51;101092.53;;;17.60;96.98
2673;BME280;1346;51.558;6.996;2022-07-29T04:32:18;101094.56;;;17.58;97.03
2673;BME280;1346;51.558;6.996;2022-07-29T04:34:44;101087.03;;;17.54;98.78
2673;BME280;1346;51.558;6.996;2022-07-29T04:37:12;101099.78;;;17.45;100.00
2673;BME280;1346;51.558;6.996;2022-07-29T04:39:39;101081.47;;;17.33;100.00
2673;BME280;1346;51.558;6.996;2022-07-29T04:42:06;101071.97;;;17.22;100.00
2673;BME280;1346;51.558;6.996;2022-07-29T04:44:33;101068.25;;;17.09;100.00
2673;BME280;1346;51.558;6.996;2022-07-29T04:47:01;101079.72;;;16.96;100.00
2673;BME280;1346;51.558;6.996;2022-07-29T04:49:28;101083.50;;;16.87;100.00
2673;BME280;1346;51.558;6.996;2022-07-29T04:51:55;101072.41;;;16.82;100.00
2673;BME280;1346;51.558;6.996;2022-07-29T04:54:22;101085.25;;;16.80;100.00
2673;BME280;1346;51.558;6.996;2022-07-29T04:56:49;101074.81;;;16.77;100.00
2673;BME280;1346;51.558;6.996;2022-07-29T04:59:16;101075.00;;;16.75;100.00
2673;BME280;1346;51.558;6.996;2022-07-29T05:01:43;101068.28;;;16.71;100.00
2673;BME280;1346;51.558;6.996;2022-07-29T05:04:11;101063.22;;;16.68;100.00
2673;BME280;1346;51.558;6.996;2022-07-29T05:06:38;101060.06;;;16.65;100.00
2673;BME280;1346;51.558;6.996;2022-07-29T05:09:05;101047.75;;;16.62;100.00
2673;BME280;1346;51.558;6.996;2022-07-29T05:11:32;101037.13;;;16.61;100.00
2673;BME280;1346;51.558;6.996;2022-07-29T05:13:59;101033.94;;;16.57;100.00
2673;BME280;1346;51.558;6.996;2022-07-29T05:16:26;101037.31;;;16.59;100.00
2673;BME280;1346;51.558;6.996;2022-07-29T05:18:53;101033.94;;;16.57;100.00
2673;BME280;1346;51.558;6.996;2022-07-29T05:21:21;101021.22;;;16.58;100.00
2673;BME280;1346;51.558;6.996;2022-07-29T05:23:48;101021.91;;;16.60;100.00
2673;BME280;1346;51.558;6.996;2022-07-29T05:26:15;101026.94;;;16.63;100.00
2673;BME280;1346;51.558;6.996;2022-07-29T05:28:42;101031.34;;;16.64;100.00
2673;BME280;1346;51.558;6.996;2022-07-29T05:31:09;101026.59;;;16.66;100.00
2673;BME280;1346;51.558;6.996;2022-07-29T05:33:36;101023.69;;;16.67;100.00
2673;BME280;1346;51.558;6.996;2022-07-29T05:36:03;101026.22;;;16.69;100.00
2673;BME280;1346;51.558;6.996;2022-07-29T05:38:33;101037.69;;;16.71;100.00
2673;BME280;1346;51.558;6.996;2022-07-29T05:41:01;101029.75;;;16.69;100.00
2673;BME280;1346;51.558;6.996;2022-07-29T05:43:28;101038.69;;;16.70;100.00
2673;BME280;1346;51.558;6.996;2022-07-29T05:45:55;101043.75;;;16.73;100.00
2673;BME280;1346;51.558;6.996;2022-07-29T05:48:23;101056.91;;;16.76;100.00
2673;BME280;1346;51.558;6.996;2022-07-29T05:50:50;101063.00;;;16.78;100.00
2673;BME280;1346;51.558;6.996;2022-07-29T05:53:17;101079.50;;;16.83;100.00
2673;BME280;1346;51.558;6.996;2022-07-29T05:55:45;101083.50;;;16.87;100.00
2673;BME280;1346;51.558;6.996;2022-07-29T05:58:12;101080.81;;;16.87;100.00
2673;BME280;1346;51.558;6.996;2022-07-29T06:00:39;101071.50;;;16.89;100.00
2673;BME280;1346;51.558;6.996;2022-07-29T06:03:06;101058.81;;;16.90;100.00
2673;BME280;1346;51.558;6.996;2022-07-29T06:05:33;101050.31;;;16.93;100.00
2673;BME280;1346;51.558;6.996;2022-07-29T06:08:00;101035.75;;;16.94;100.00
2673;BME280;1346;51.558;6.996;2022-07-29T06:10:27;101026.63;;;16.95;100.00
2673;BME280;1346;51.558;6.996;2022-07-29T06:12:55;101036.22;;;16.98;100.00
2673;BME280;1346;51.558;6.996;2022-07-29T06:15:22;101038.72;;;16.99;100.00
2673;BME280;1346;51.558;6.996;2022-07-29T06:17:49;101035.00;;;17.00;100.00
2673;BME280;1346;51.558;6.996;2022-07-29T06:20:16;101025.00;;;17.01;100.00
2673;BME280;1346;51.558;6.996;2022-07-29T06:22:43;101022.97;;;17.03;100.00
2673;BME280;1346;51.558;6.996;2022-07-29T06:25:10;101016.69;;;17.02;100.00
2673;BME280;1346;51.558;6.996;2022-07-29T06:27:37;101004.00;;;17.03;100.00
2673;BME280;1346;51.558;6.996;2022-07-29T06:30:07;101007.19;;;17.06;100.00
2673;BME280;1346;51.558;6.996;2022-07-29T06:32:35;101003.09;;;17.10;100.00
2673;BME280;1346;51.558;6.996;2022-07-29T06:35:03;101016.03;;;17.15;100.00
2673;BME280;1346;51.558;6.996;2022-07-29T06:37:30;100994.00;;;17.18;100.00
2673;BME280;1346;51.558;6.996;2022-07-29T06:39:57;100981.97;;;17.20;100.00
2673;BME280;1346;51.558;6.996;2022-07-29T06:42:42;100994.09;;;17.24;100.00
2673;BME280;1346;51.558;6.996;2022-07-29T06:45:11;101002.47;;;17.29;100.00
2673;BME280;1346;51.558;6.996;2022-07-29T06:47:38;101029.84;;;17.34;100.00
2673;BME280;1346;51.558;6.996;2022-07-29T06:50:06;101053.66;;;17.39;100.00
2673;BME280;1346;51.558;6.996;2022-07-29T06:52:37;101058.41;;;17.37;100.00
2673;BME280;1346;51.558;6.996;2022-07-29T06:55:05;101053.59;;;17.32;100.00
2673;BME280;1346;51.558;6.996;2022-07-29T06:57:32;101051.22;;;17.29;100.00
2673;BME280;1346;51.558;6.996;2022-07-29T06:59:59;101046.66;;;17.30;100.00
2673;BME280;1346;51.558;6.996;2022-07-29T07:02:28;101050.50;;;17.35;100.00
2673;BME280;1346;51.558;6.996;2022-07-29T07:04:54;101058.50;;;17.43;100.00
2673;BME280;1346;51.558;6.996;2022-07-29T07:07:21;101073.66;;;17.52;100.00
2673;BME280;1346;51.558;6.996;2022-07-29T07:09:49;101054.97;;;17.57;100.00
2673;BME280;1346;51.558;6.996;2022-07-29T07:12:16;101063.19;;;17.64;100.00
2673;BME280;1346;51.558;6.996;2022-07-29T07:14:43;101064.50;;;17.68;100.00
2673;BME280;1346;51.558;6.996;2022-07-29T07:17:09;101076.81;;;17.70;100.00
2673;BME280;1346;51.558;6.996;2022-07-29T07:19:38;101071.00;;;17.73;100.00
2673;BME280;1346;51.558;6.996;2022-07-29T07:22:05;101075.66;;;17.79;100.00
2673;BME280;1346;51.558;6.996;2022-07-29T07:24:32;101081.34;;;17.84;100.00
2673;BME280;1346;51.558;6.996;2022-07-29T07:26:58;101086.00;;;17.90;100.00
2673;BME280;1346;51.558;6.996;2022-07-29T07:29:25;101094.19;;;17.97;100.00
2673;BME280;1346;51.558;6.996;2022-07-29T07:31:52;101093.47;;;18.03;100.00
2673;BME280;1346;51.558;6.996;2022-07-29T07:34:19;101097.53;;;18.14;100.00
2673;BME280;1346;51.558;6.996;2022-07-29T07:36:48;101111.63;;;18.24;100.00
2673;BME280;1346;51.558;6.996;2022-07-29T07:39:15;101097.53;;;18.35;100.00
2673;BME280;1346;51.558;6.996;2022-07-29T07:41:41;101117.72;;;18.47;100.00
2673;BME280;1346;51.558;6.996;2022-07-29T07:44:08;101116.56;;;18.56;100.00
2673;BME280;1346;51.558;6.996;2022-07-29T07:46:35;101115.56;;;18.63;100.00
2673;BME280;1346;51.558;6.996;2022-07-29T07:49:02;101123.59;;;18.71;100.00
2673;BME280;1346;51.558;6.996;2022-07-29T07:51:29;101122.59;;;18.79;100.00
2673;BME280;1346;51.558;6.996;2022-07-29T07:53:57;101122.84;;;18.84;100.00
2673;BME280;1346;51.558;6.996;2022-07-29T07:56:24;101113.50;;;18.86;100.00
2673;BME280;1346;51.558;6.996;2022-07-29T07:58:51;101123.75;;;18.91;100.00
2673;BME280;1346;51.558;6.996;2022-07-29T08:01:19;101115.22;;;18.94;100.00
2673;BME280;1346;51.558;6.996;2022-07-29T08:03:48;101114.19;;;18.95;100.00
2673;BME280;1346;51.558;6.996;2022-07-29T08:06:15;101121.09;;;18.97;100.00
2673;BME280;1346;51.558;6.996;2022-07-29T08:08:42;101123.59;;;18.99;100.00
2673;BME280;1346;51.558;6.996;2022-07-29T08:11:11;101122.78;;;18.98;100.00
2673;BME280;1346;51.558;6.996;2022-07-29T08:13:38;101122.19;;;19.03;100.00
2673;BME280;1346;51.558;6.996;2022-07-29T08:16:06;101121.56;;;19.07;100.00
2673;BME280;1346;51.558;6.996;2022-07-29T08:18:41;101119.31;;;19.11;100.00
2673;BME280;1346;51.558;6.996;2022-07-29T08:21:08;101126.81;;;19.09;100.00
2673;BME280;1346;51.558;6.996;2022-07-29T08:23:35;101120.13;;;19.05;100.00
2673;BME280;1346;51.558;6.996;2022-07-29T08:26:05;101121.53;;;19.01;100.00
2673;BME280;1346;51.558;6.996;2022-07-29T08:28:37;101115.28;;;19.00;100.00
2673;BME280;1346;51.558;6.996;2022-07-29T08:31:05;101127.16;;;18.99;100.00
2673;BME280;1346;51.558;6.996;2022-07-29T08:33:32;101123.59;;;18.99;100.00
2673;BME280;1346;51.558;6.996;2022-07-29T08:35:59;101130.09;;;18.98;100.00
2673;BME280;1346;51.558;6.996;2022-07-29T08:38:26;101123.44;;;19.00;100.00
2673;BME280;1346;51.558;6.996;2022-07-29T08:40:53;101127.63;;;19.03;100.00
2673;BME280;1346;51.558;6.996;2022-07-29T08:43:20;101124.28;;;19.07;100.00
2673;BME280;1346;51.558;6.996;2022-07-29T08:45:50;101122.03;;;19.11;100.00
2673;BME280;1346;51.558;6.996;2022-07-29T08:48:22;101115.78;;;19.10;100.00
2673;BME280;1346;51.558;6.996;2022-07-29T08:50:52;101118.84;;;19.07;100.00
2673;BME280;1346;51.558;6.996;2022-07-29T08:53:21;101123.84;;;19.04;100.00
2673;BME280;1346;51.558;6.996;2022-07-29T08:55:53;101124.25;;;19.01;100.00
2673;BME280;1346;51.558;6.996;2022-07-29T08:58:22;101126.97;;;19.01;100.00
2673;BME280;1346;51.558;6.996;2022-07-29T09:00:54;101122.59;;;19.00;100.00
2673;BME280;1346;51.558;6.996;2022-07-29T09:03:24;101120.97;;;19.05;100.00
2673;BME280;1346;51.558;6.996;2022-07-29T09:05:51;101117.44;;;19.11;100.00
2673;BME280;1346;51.558;6.996;2022-07-29T09:08:19;101111.59;;;19.14;100.00
2673;BME280;1346;51.558;6.996;2022-07-29T09:10:46;101111.47;;;19.22;100.00
2673;BME280;1346;51.558;6.996;2022-07-29T09:13:13;101113.38;;;19.28;100.00
2673;BME280;1346;51.558;6.996;2022-07-29T09:15:40;101110.09;;;19.33;100.00
2673;BME280;1346;51.558;6.996;2022-07-29T09:18:08;101111.16;;;19.39;100.00
2673;BME280;1346;51.558;6.996;2022-07-29T09:20:36;101114.78;;;19.46;100.00
2673;BME280;1346;51.558;6.996;2022-07-29T09:23:21;101114.16;;;19.50;100.00
2673;BME280;1346;51.558;6.996;2022-07-29T09:25:48;101120.22;;;19.52;100.00
2673;BME280;1346;51.558;6.996;2022-07-29T09:28:17;101125.03;;;19.50;100.00
2673;BME280;1346;51.558;6.996;2022-07-29T09:30:51;101120.41;;;19.44;100.00
2673;BME280;1346;51.558;6.996;2022-07-29T09:33:21;101125.59;;;19.39;100.00
2673;BME280;1346;51.558;6.996;2022-07-29T09:35:59;101123.09;;;19.38;100.00
2673;BME280;1346;51.558;6.996;2022-07-29T09:38:27;101121.84;;;19.40;100.00
2673;BME280;1346;51.558;6.996;2022-07-29T09:40:56;101105.75;;;19.45;100.00
2673;BME280;1346;51.558;6.996;2022-07-29T09:43:24;101111.66;;;19.49;100.00
2673;BME280;1346;51.558;6.996;2022-07-29T09:45:51;101099.34;;;19.53;100.00
2673;BME280;1346;51.558;6.996;2022-07-29T09:48:21;101094.69;;;19.47;100.00
2673;BME280;1346;51.558;6.996;2022-07-29T09:50:50;101095.28;;;19.36;100.00
2673;BME280;1346;51.558;6.996;2022-07-29T09:53:31;101085.97;;;19.23;100.00
2673;BME280;1346;51.558;6.996;2022-07-29T09:55:59;101088.91;;;19.22;100.00
2673;BME280;1346;51.558;6.996;2022-07-29T09:58:26;101085.56;;;19.26;100.00
2673;BME280;1346;51.558;6.996;2022-07-29T10:00:55;101081.06;;;19.40;100.00
2673;BME280;1346;51.558;6.996;2022-07-29T10:03:23;101079.69;;;19.57;100.00
2673;BME280;1346;51.558;6.996;2022-07-29T10:06:06;101087.09;;;19.76;100.00
2673;BME280;1346;51.558;6.996;2022-07-29T10:08:33;101078.56;;;19.92;100.00
2673;BME280;1346;51.558;6.996;2022-07-29T10:11:11;101079.25;;;20.07;100.00
2673;BME280;1346;51.558;6.996;2022-07-29T10:13:39;101081.16;;;20.13;100.00
2673;BME280;1346;51.558;6.996;2022-07-29T10:16:07;101077.19;;;20.16;100.00
2673;BME280;1346;51.558;6.996;2022-07-29T10:18:38;101079.50;;;20.12;100.00
2673;BME280;1346;51.558;6.996;2022-07-29T10:21:06;101081.56;;;20.04;100.00
2673;BME280;1346;51.558;6.996;2022-07-29T10:23:34;101077.34;;;20.01;100.00
2673;BME280;1346;51.558;6.996;2022-07-29T10:26:02;101080.72;;;20.03;100.00
2673;BME280;1346;51.558;6.996;2022-07-29T10:28:30;101074.06;;;20.12;100.00
2673;BME280;1346;51.558;6.996;2022-07-29T10:31:03;101075.13;;;20.24;100.00
2673;BME280;1346;51.558;6.996;2022-07-29T10:33:47;101078.69;;;20.31;100.00
2673;BME280;1346;51.558;6.996;2022-07-29T10:36:40;101079.13;;;20.41;100.00
2673;BME280;1346;51.558;6.996;2022-07-29T10:39:21;101079.56;;;20.45;100.00
2673;BME280;1346;51.558;6.996;2022-07-29T10:42:02;101083.34;;;20.37;100.00
2673;BME280;1346;51.558;6.996;2022-07-29T10:44:32;101078.69;;;20.25;100.00
2673;BME280;1346;51.558;6.996;2022-07-29T10:47:00;101092.47;;;20.10;100.00
2673;BME280;1346;51.558;6.996;2022-07-29T10:49:28;101087.16;;;19.96;100.00
2673;BME280;1346;51.558;6.996;2022-07-29T10:52:04;101090.28;;;19.86;100.00
2673;BME280;1346;51.558;6.996;2022-07-29T10:54:46;101085.84;;;19.79;100.00
2673;BME280;1346;51.558;6.996;2022-07-29T10:57:21;101090.00;;;19.68;100.00
2673;BME280;1346;51.558;6.996;2022-07-29T11:02:51;101089.81;;;19.70;100.00
2673;BME280;1346;51.558;6.996;2022-07-29T11:05:22;101095.91;;;19.78;100.00
2673;BME280;1346;51.558;6.996;2022-07-29T11:08:20;101100.75;;;19.89;100.00
2673;BME280;1346;51.558;6.996;2022-07-29T11:10:49;101094.09;;;19.98;100.00
2673;BME280;1346;51.558;6.996;2022-07-29T11:13:45;101102.91;;;20.13;100.00
2673;BME280;1346;51.558;6.996;2022-07-29T11:16:13;101097.38;;;20.34;100.00
2673;BME280;1346;51.558;6.996;2022-07-29T11:19:20;101100.94;;;20.74;100.00
2673;BME280;1346;51.558;6.996;2022-07-29T11:21:49;101100.31;;;21.05;100.00
2673;BME280;1346;51.558;6.996;2022-07-29T11:24:20;101099.22;;;21.38;100.00
2673;BME280;1346;51.558;6.996;2022-07-29T11:27:14;101105.81;;;21.82;100.00
2673;BME280;1346;51.558;6.996;2022-07-29T11:29:51;101107.91;;;22.24;100.00
2673;BME280;1346;51.558;6.996;2022-07-29T11:32:19;101110.44;;;22.56;100.00
2673;BME280;1346;51.558;6.996;2022-07-29T11:34:48;101104.69;;;22.89;100.00
2673;BME280;1346;51.558;6.996;2022-07-29T11:37:23;101105.94;;;23.18;100.00
2673;BME280;1346;51.558;6.996;2022-07-29T11:40:16;101107.72;;;23.30;97.55
2673;BME280;1346;51.558;6.996;2022-07-29T11:42:46;101104.41;;;23.46;92.69
2673;BME280;1346;51.558;6.996;2022-07-29T11:45:25;101109.25;;;23.62;93.54
2673;BME280;1346;51.558;6.996;2022-07-29T11:47:58;101108.13;;;23.70;92.45
2673;BME280;1346;51.558;6.996;2022-07-29T11:50:32;101110.06;;;23.81;87.85
2673;BME280;1346;51.558;6.996;2022-07-29T11:53:03;101113.09;;;23.91;87.64
2673;BME280;1346;51.558;6.996;2022-07-29T11:55:38;101110.00;;;24.06;82.19
2673;BME280;1346;51.558;6.996;2022-07-29T11:58:05;101107.16;;;24.12;80.05
2673;BME280;1346;51.558;6.996;2022-07-29T12:00:35;101107.06;;;24.19;81.21
2673;BME280;1346;51.558;6.996;2022-07-29T12:03:05;101099.22;;;24.22;80.52
2673;BME280;1346;51.558;6.996;2022-07-29T12:05:39;101107.72;;;24.32;81.84
2673;BME280;1346;51.558;6.996;2022-07-29T12:08:14;101102.19;;;24.50;79.92
2673;BME280;1346;51.558;6.996;2022-07-29T12:10:42;101102.63;;;24.77;77.02
2673;BME280;1346;51.558;6.996;2022-07-29T12:13:10;101101.34;;;25.02;75.84
2673;BME280;1346;51.558;6.996;2022-07-29T12:15:38;101102.31;;;25.20;74.47
2673;BME280;1346;51.558;6.996;2022-07-29T12:18:13;101100.97;;;25.34;72.04
2673;BME280;1346;51.558;6.996;2022-07-29T12:20:41;101093.59;;;25.46;72.28
2673;BME280;1346;51.558;6.996;2022-07-29T12:23:10;101094.94;;;25.83;73.29
2673;BME280;1346;51.558;6.996;2022-07-29T12:25:40;101095.72;;;26.06;67.12
2673;BME280;1346;51.558;6.996;2022-07-29T12:28:09;101104.91;;;26.12;59.70
2673;BME280;1346;51.558;6.996;2022-07-29T12:30:40;101094.41;;;26.09;57.74
2673;BME280;1346;51.558;6.996;2022-07-29T12:33:21;101097.31;;;25.91;56.22
2673;BME280;1346;51.558;6.996;2022-07-29T12:35:51;101087.16;;;25.52;61.20
2673;BME280;1346;51.558;6.996;2022-07-29T12:38:20;101099.19;;;25.28;62.82
2673;BME280;1346;51.558;6.996;2022-07-29T12:40:48;101091.44;;;25.01;64.25
2673;BME280;1346;51.558;6.996;2022-07-29T12:43:18;101095.03;;;24.90;65.60
2673;BME280;1346;51.558;6.996;2022-07-29T12:45:47;101102.53;;;24.95;67.29
2673;BME280;1346;51.558;6.996;2022-07-29T12:48:15;101104.56;;;24.99;66.52
2673;BME280;1346;51.558;6.996;2022-07-29T12:50:54;101098.59;;;25.02;66.40
2673;BME280;1346;51.558;6.996;2022-07-29T12:53:23;101103.47;;;25.12;66.38
2673;BME280;1346;51.558;6.996;2022-07-29T12:55:54;101097.16;;;25.12;66.57
2673;BME280;1346;51.558;6.996;2022-07-29T12:58:29;101093.38;;;25.13;66.42
2673;BME280;1346;51.558;6.996;2022-07-29T13:01:09;101097.63;;;25.08;67.27
2673;BME280;1346;51.558;6.996;2022-07-29T13:03:49;101096.69;;;25.03;69.29
2673;BME280;1346;51.558;6.996;2022-07-29T13:06:31;101098.84;;;25.01;70.31
2673;BME280;1346;51.558;6.996;2022-07-29T13:09:07;101102.03;;;24.86;71.91
2673;BME280;1346;51.558;6.996;2022-07-29T13:11:37;101109.41;;;24.74;72.91
2673;BME280;1346;51.558;6.996;2022-07-29T13:14:06;101106.84;;;24.61;73.24
2673;BME280;1346;51.558;6.996;2022-07-29T13:16:34;101109.09;;;24.53;74.35
2673;BME280;1346;51.558;6.996;2022-07-29T13:19:10;101109.78;;;24.37;74.85
2673;BME280;1346;51.558;6.996;2022-07-29T13:21:39;101108.94;;;24.36;74.59
2673;BME280;1346;51.558;6.996;2022-07-29T13:24:08;101112.06;;;24.51;75.33
2673;BME280;1346;51.558;6.996;2022-07-29T13:26:39;101116.44;;;24.70;72.78